Hai Yang Shi You 708 — BFDL — position and weather

sailwx.info

Track history (hours):
 
Tides and Currents Weather Stations Pressure Air Temp Water Temp Dewpoint Dewpoint Depression Visibility Wind Speed Wind Dir Waves Ship Positions

Hai Yang Shi You 708

Last reported at 2014-Sep-18 12:15 UTC. Time now 2014-Sep-19 07:50 UTC.
Position N 22°19' E 114°05'.

Length 105 m; draft 7 m.

Type: Other ship. MMSI: 413303010.

Date/timePositionNaut miles runAvg speedWind from/ knotsBaromVisibWave heightAir tempDewpointWater temp
2014-Sep-18 12:15N 22°19' E 114°05'11 9.5
2014-Sep-18 11:05N 22°22' E 113°54'4 6.7
2014-Sep-18 10:31N 22°26' E 113°53'2 2.2
2014-Sep-18 09:31N 22°28' E 113°54'0 0.0
2014-Sep-18 08:31N 22°28' E 113°54'0 0.0
2014-Sep-18 07:25N 22°28' E 113°54'0 0.0
2014-Sep-18 06:31N 22°28' E 113°54'0 0.0
2014-Sep-18 05:31N 22°28' E 113°54'0 0.0
2014-Sep-18 04:31N 22°28' E 113°54'0 0.0
2014-Sep-18 03:31N 22°28' E 113°54'0 0.1
2014-Sep-18 02:31N 22°28' E 113°54'0 0.0
2014-Sep-18 01:22N 22°28' E 113°54'0 0.0
2014-Sep-18 00:31N 22°28' E 113°54'0 0.0
2014-Sep-17 23:31N 22°28' E 113°54'0 0.0
2014-Sep-17 22:31N 22°28' E 113°54'0 0.0
2014-Sep-17 21:31N 22°28' E 113°54'0 0.0
2014-Sep-17 20:31N 22°28' E 113°54'0 0.0
2014-Sep-17 19:31N 22°28' E 113°54'0 0.0
2014-Sep-17 18:31N 22°28' E 113°54'0 0.0
2014-Sep-17 17:31N 22°28' E 113°54'0 0.0
2014-Sep-17 16:31N 22°28' E 113°54'0 0.0
2014-Sep-17 15:22N 22°28' E 113°54'0 0.0
2014-Sep-17 14:31N 22°28' E 113°54'0 0.0
2014-Sep-17 13:28N 22°28' E 113°54'0 0.0
2014-Sep-17 12:31N 22°28' E 113°54'0 0.0
2014-Sep-17 11:31N 22°28' E 113°54'0 0.0
2014-Sep-17 10:31N 22°28' E 113°54'0 0.0
2014-Sep-17 09:28N 22°28' E 113°54'0 0.0
2014-Sep-17 08:31N 22°28' E 113°54'0 0.0
2014-Sep-17 07:31N 22°28' E 113°54'0 0.0
2014-Sep-17 06:28N 22°28' E 113°54'0 0.0
2014-Sep-17 05:31N 22°28' E 113°54'0 0.0
2014-Sep-17 04:31N 22°28' E 113°54'0 0.0
2014-Sep-17 03:34N 22°28' E 113°54'5 4.9
2014-Sep-17 02:34N 22°24' E 113°51'8 8.3
2014-Sep-17 01:33N 22°16' E 113°48'3 2.9
2014-Sep-17 00:31N 22°13' E 113°48'0 0.0
2014-Sep-16 22:31N 22°13' E 113°48'0 0.1
2014-Sep-16 21:31N 22°13' E 113°48'0 0.0
2014-Sep-16 20:31N 22°13' E 113°48'0 0.0
2014-Sep-16 19:25N 22°13' E 113°48'0 0.0
2014-Sep-16 18:31N 22°13' E 113°48'0 0.0
2014-Sep-16 17:25N 22°13' E 113°48'0 0.0
2014-Sep-16 16:31N 22°13' E 113°48'0 0.1
2014-Sep-16 15:31N 22°13' E 113°48'0 0.1
2014-Sep-16 14:33N 22°13' E 113°48'0 0.0
2014-Sep-16 13:33N 22°13' E 113°48'0 0.1
2014-Sep-16 12:33N 22°13' E 113°48'0 0.1
2014-Sep-16 11:33N 22°13' E 113°48'0 0.0
2014-Sep-16 10:32N 22°13' E 113°48'0 0.2
2014-Sep-16 09:33N 22°13' E 113°48'9 0.2
2014-Sep-14 22:32N 22°08' E 113°55'  
Track history (hours):
 
Tides and Currents Weather Stations Pressure Air Temp Water Temp Dewpoint Dewpoint Depression Visibility Wind Speed Wind Dir Waves Ship Positions

Hai Yang Shi You 708

Last reported at 2014-Sep-18 12:15 UTC. Time now 2014-Sep-19 07:50 UTC.
Position N 22°19' E 114°05'.

Length 105 m; draft 7 m.

Type: Other ship. MMSI: 413303010.

Date/timePositionNaut miles runAvg speedWind from/ knotsBaromVisibWave heightAir tempDewpointWater temp
2014-Sep-18 12:15N 22°19' E 114°05'11 9.5
2014-Sep-18 11:05N 22°22' E 113°54'4 6.7
2014-Sep-18 10:31N 22°26' E 113°53'2 2.2
2014-Sep-18 09:31N 22°28' E 113°54'0 0.0
2014-Sep-18 08:31N 22°28' E 113°54'0 0.0
2014-Sep-18 07:25N 22°28' E 113°54'0 0.0
2014-Sep-18 06:31N 22°28' E 113°54'0 0.0
2014-Sep-18 05:31N 22°28' E 113°54'0 0.0
2014-Sep-18 04:31N 22°28' E 113°54'0 0.0
2014-Sep-18 03:31N 22°28' E 113°54'0 0.1
2014-Sep-18 02:31N 22°28' E 113°54'0 0.0
2014-Sep-18 01:22N 22°28' E 113°54'0 0.0
2014-Sep-18 00:31N 22°28' E 113°54'0 0.0
2014-Sep-17 23:31N 22°28' E 113°54'0 0.0
2014-Sep-17 22:31N 22°28' E 113°54'0 0.0
2014-Sep-17 21:31N 22°28' E 113°54'0 0.0
2014-Sep-17 20:31N 22°28' E 113°54'0 0.0
2014-Sep-17 19:31N 22°28' E 113°54'0 0.0
2014-Sep-17 18:31N 22°28' E 113°54'0 0.0
2014-Sep-17 17:31N 22°28' E 113°54'0 0.0
2014-Sep-17 16:31N 22°28' E 113°54'0 0.0
2014-Sep-17 15:22N 22°28' E 113°54'0 0.0
2014-Sep-17 14:31N 22°28' E 113°54'0 0.0
2014-Sep-17 13:28N 22°28' E 113°54'0 0.0
2014-Sep-17 12:31N 22°28' E 113°54'0 0.0
2014-Sep-17 11:31N 22°28' E 113°54'0 0.0
2014-Sep-17 10:31N 22°28' E 113°54'0 0.0
2014-Sep-17 09:28N 22°28' E 113°54'0 0.0
2014-Sep-17 08:31N 22°28' E 113°54'0 0.0
2014-Sep-17 07:31N 22°28' E 113°54'0 0.0
2014-Sep-17 06:28N 22°28' E 113°54'0 0.0
2014-Sep-17 05:31N 22°28' E 113°54'0 0.0
2014-Sep-17 04:31N 22°28' E 113°54'0 0.0
2014-Sep-17 03:34N 22°28' E 113°54'5 4.9
2014-Sep-17 02:34N 22°24' E 113°51'8 8.3
2014-Sep-17 01:33N 22°16' E 113°48'3 2.9
2014-Sep-17 00:31N 22°13' E 113°48'0 0.0
2014-Sep-16 22:31N 22°13' E 113°48'0 0.1
2014-Sep-16 21:31N 22°13' E 113°48'0 0.0
2014-Sep-16 20:31N 22°13' E 113°48'0 0.0
2014-Sep-16 19:25N 22°13' E 113°48'0 0.0
2014-Sep-16 18:31N 22°13' E 113°48'0 0.0
2014-Sep-16 17:25N 22°13' E 113°48'0 0.0
2014-Sep-16 16:31N 22°13' E 113°48'0 0.1
2014-Sep-16 15:31N 22°13' E 113°48'0 0.1
2014-Sep-16 14:33N 22°13' E 113°48'0 0.0
2014-Sep-16 13:33N 22°13' E 113°48'0 0.1
2014-Sep-16 12:33N 22°13' E 113°48'0 0.1
2014-Sep-16 11:33N 22°13' E 113°48'0 0.0
2014-Sep-16 10:32N 22°13' E 113°48'0 0.2
2014-Sep-16 09:33N 22°13' E 113°48'9 0.2
2014-Sep-14 22:32N 22°08' E 113°55'  

Dump ship's entire track history